Bratenahl, Ohio
Current Conditions -  °F | °C
As of 5:53 PM on Saturday 20 Dec 2014 (Local Time) from KBKL Reporting Station
Overcast Overcast  
Wind Chill: 26°   Ceiling: 2700
Heat Index: 32°   Visibility: 10mi
Dew Point: 22°   Wind: 6mph
Humidity: 66%   Direction: 280°W
Pressure: 30.27"   Gusts: NA
Location:  41.5405°N, 81.6075°W
Report Text: KBKL 202253Z 28005KT 10SM OVC027 00/M06 A3027 RMK AO2 SLP259 T00001056
Loading
Personal Weather Stations






























Interactive Weather Map New forecast layout! Learn more

10-Day Weather Forecast

Advertisements
Track Severe Weather on mobile